Terminal Aerodrome Forecast
Issued by NWS

Home | Current Version | Previous Version | Text Only | Print | Product List | Glossary On
Versions: 1 2 3 4 5 6 7 8 9 10 11 12 13 14 15
000
FTUS43 KBIS 180500
TAFMOT
TAF
KMOT 180535Z 1806/1906 11008KT P6SM SKC
     FM181900 21015KT P6SM SCT090
     FM182200 24015KT P6SM BKN070
     FM190000 27015KT P6SM OVC060
     FM190200 30015KT P6SM OVC050=

USA.gov is the U.S. government's official web portal to all federal, state and local government web resources and services.